LFPO METAR and TAF | Updated Today

LFPO METAR

Paris-Orly Airport

Observation time: 29 min. ago

LFPO 252000Z 25008KT 210V270 9999 BKN038 BKN049 17/09 Q1021 NOSIG

Need help? Read our tutorial on how to read METARs or read the parsed version below.

Paris-Orly Airport (LFPO) METAR

  • Weather conditions on Wed, 25 May 2022 20:00:00 +0000 (29 min. ago):
  • Present conditions: Dry
  • Clouds: Broken sky at 1158 meters; broken sky at 1494 meters
  • Visibility: Greater than 10 km
  • Wind: 250 degrees at 8 knots
  • Temperature: 17 celsius
  • Dew point: 9 celsius
  • Pressure: 1021 millibars
  • Remarks: None


Useful to know...